sensor_id;sensor_type;location;lat;lon;timestamp;temperature;humidity
70534;SHT31;58088;51.186;17.130;2022-10-26T00:03:35;10.09;76.54
70534;SHT31;58088;51.186;17.130;2022-10-26T00:06:07;10.09;76.32
70534;SHT31;58088;51.186;17.130;2022-10-26T00:08:37;10.05;76.06
70534;SHT31;58088;51.186;17.130;2022-10-26T00:11:03;10.04;76.00
70534;SHT31;58088;51.186;17.130;2022-10-26T00:13:30;10.02;75.97
70534;SHT31;58088;51.186;17.130;2022-10-26T00:15:57;10.00;76.12
70534;SHT31;58088;51.186;17.130;2022-10-26T00:18:23;10.00;76.07
70534;SHT31;58088;51.186;17.130;2022-10-26T00:20:50;9.99;76.04
70534;SHT31;58088;51.186;17.130;2022-10-26T00:23:16;9.99;76.13
70534;SHT31;58088;51.186;17.130;2022-10-26T00:25:42;9.99;76.23
70534;SHT31;58088;51.186;17.130;2022-10-26T00:28:09;9.92;75.97
70534;SHT31;58088;51.186;17.130;2022-10-26T00:30:39;9.88;75.89
70534;SHT31;58088;51.186;17.130;2022-10-26T00:33:05;9.87;76.02
70534;SHT31;58088;51.186;17.130;2022-10-26T00:35:31;9.86;76.08
70534;SHT31;58088;51.186;17.130;2022-10-26T00:37:57;9.80;75.93
70534;SHT31;58088;51.186;17.130;2022-10-26T00:40:26;9.70;75.94
70534;SHT31;58088;51.186;17.130;2022-10-26T00:42:53;9.70;75.85
70534;SHT31;58088;51.186;17.130;2022-10-26T00:45:21;9.65;75.96
70534;SHT31;58088;51.186;17.130;2022-10-26T00:50:32;9.61;76.09
70534;SHT31;58088;51.186;17.130;2022-10-26T00:53:06;9.57;76.10
70534;SHT31;58088;51.186;17.130;2022-10-26T00:55:39;9.49;76.02
70534;SHT31;58088;51.186;17.130;2022-10-26T00:58:13;9.43;76.02
70534;SHT31;58088;51.186;17.130;2022-10-26T01:00:41;9.39;75.98
70534;SHT31;58088;51.186;17.130;2022-10-26T01:03:08;9.36;75.90
70534;SHT31;58088;51.186;17.130;2022-10-26T01:05:36;9.30;75.82
70534;SHT31;58088;51.186;17.130;2022-10-26T01:08:06;9.25;75.97
70534;SHT31;58088;51.186;17.130;2022-10-26T01:10:34;9.21;76.02
70534;SHT31;58088;51.186;17.130;2022-10-26T01:13:03;9.16;76.02
70534;SHT31;58088;51.186;17.130;2022-10-26T01:18:46;9.04;76.25
70534;SHT31;58088;51.186;17.130;2022-10-26T01:24:31;8.99;76.49
70534;SHT31;58088;51.186;17.130;2022-10-26T01:27:22;8.96;76.56
70534;SHT31;58088;51.186;17.130;2022-10-26T01:30:29;8.93;76.58
70534;SHT31;58088;51.186;17.130;2022-10-26T01:33:21;8.86;76.50
70534;SHT31;58088;51.186;17.130;2022-10-26T01:36:10;8.81;76.45
70534;SHT31;58088;51.186;17.130;2022-10-26T01:38:51;8.77;76.33
70534;SHT31;58088;51.186;17.130;2022-10-26T01:44:50;8.67;76.51
70534;SHT31;58088;51.186;17.130;2022-10-26T01:47:07;8.64;76.64
70534;SHT31;58088;51.186;17.130;2022-10-26T01:49:39;8.56;76.75
70534;SHT31;58088;51.186;17.130;2022-10-26T01:52:13;8.52;76.85
70534;SHT31;58088;51.186;17.130;2022-10-26T01:54:39;8.52;76.88
70534;SHT31;58088;51.186;17.130;2022-10-26T01:57:09;8.48;76.89
70534;SHT31;58088;51.186;17.130;2022-10-26T02:00:01;8.47;76.97
70534;SHT31;58088;51.186;17.130;2022-10-26T02:05:35;8.43;76.93
70534;SHT31;58088;51.186;17.130;2022-10-26T02:08:32;8.39;76.87
70534;SHT31;58088;51.186;17.130;2022-10-26T02:11:45;8.38;76.81
70534;SHT31;58088;51.186;17.130;2022-10-26T02:17:24;8.29;76.95
70534;SHT31;58088;51.186;17.130;2022-10-26T02:20:04;8.27;77.00
70534;SHT31;58088;51.186;17.130;2022-10-26T02:22:37;8.27;77.03
70534;SHT31;58088;51.186;17.130;2022-10-26T02:25:10;8.27;77.21
70534;SHT31;58088;51.186;17.130;2022-10-26T02:27:46;8.31;77.30
70534;SHT31;58088;51.186;17.130;2022-10-26T02:30:21;8.32;77.39
70534;SHT31;58088;51.186;17.130;2022-10-26T02:32:49;8.32;77.43
70534;SHT31;58088;51.186;17.130;2022-10-26T02:35:20;8.32;77.50
70534;SHT31;58088;51.186;17.130;2022-10-26T02:37:53;8.32;77.48
70534;SHT31;58088;51.186;17.130;2022-10-26T02:40:24;8.30;77.45
70534;SHT31;58088;51.186;17.130;2022-10-26T02:42:53;8.31;77.48
70534;SHT31;58088;51.186;17.130;2022-10-26T02:45:29;8.33;77.55
70534;SHT31;58088;51.186;17.130;2022-10-26T02:48:02;8.39;77.60
70534;SHT31;58088;51.186;17.130;2022-10-26T02:53:41;8.44;77.40
70534;SHT31;58088;51.186;17.130;2022-10-26T02:56:30;8.49;77.37
70534;SHT31;58088;51.186;17.130;2022-10-26T02:59:07;8.53;77.26
70534;SHT31;58088;51.186;17.130;2022-10-26T03:01:35;8.49;77.12
70534;SHT31;58088;51.186;17.130;2022-10-26T03:04:01;8.50;76.94
70534;SHT31;58088;51.186;17.130;2022-10-26T03:06:28;8.52;76.97
70534;SHT31;58088;51.186;17.130;2022-10-26T03:08:54;8.52;77.00
70534;SHT31;58088;51.186;17.130;2022-10-26T03:11:20;8.51;77.00
70534;SHT31;58088;51.186;17.130;2022-10-26T03:13:46;8.48;77.00
70534;SHT31;58088;51.186;17.130;2022-10-26T03:16:12;8.46;76.97
70534;SHT31;58088;51.186;17.130;2022-10-26T03:18:38;8.39;76.99
70534;SHT31;58088;51.186;17.130;2022-10-26T03:21:04;8.35;77.02
70534;SHT31;58088;51.186;17.130;2022-10-26T03:23:30;8.34;77.02
70534;SHT31;58088;51.186;17.130;2022-10-26T03:25:57;8.39;77.08
70534;SHT31;58088;51.186;17.130;2022-10-26T03:28:24;8.40;77.05
70534;SHT31;58088;51.186;17.130;2022-10-26T03:30:51;8.36;76.97
70534;SHT31;58088;51.186;17.130;2022-10-26T03:33:17;8.39;76.90
70534;SHT31;58088;51.186;17.130;2022-10-26T03:35:43;8.39;76.86
70534;SHT31;58088;51.186;17.130;2022-10-26T03:38:09;8.36;76.76
70534;SHT31;58088;51.186;17.130;2022-10-26T03:40:35;8.29;76.71
70534;SHT31;58088;51.186;17.130;2022-10-26T03:43:02;8.23;76.73
70534;SHT31;58088;51.186;17.130;2022-10-26T03:45:28;8.22;76.84
70534;SHT31;58088;51.186;17.130;2022-10-26T03:47:54;8.18;76.94
70534;SHT31;58088;51.186;17.130;2022-10-26T03:50:21;8.11;77.13
70534;SHT31;58088;51.186;17.130;2022-10-26T03:52:48;8.12;77.23
70534;SHT31;58088;51.186;17.130;2022-10-26T03:55:14;8.15;77.27
70534;SHT31;58088;51.186;17.130;2022-10-26T03:57:41;8.11;77.25
70534;SHT31;58088;51.186;17.130;2022-10-26T04:00:10;8.13;77.25
70534;SHT31;58088;51.186;17.130;2022-10-26T04:02:42;8.13;77.11
70534;SHT31;58088;51.186;17.130;2022-10-26T04:05:12;8.08;77.00
70534;SHT31;58088;51.186;17.130;2022-10-26T04:07:41;8.07;76.93
70534;SHT31;58088;51.186;17.130;2022-10-26T04:10:07;8.07;76.79
70534;SHT31;58088;51.186;17.130;2022-10-26T04:12:38;8.02;76.73
70534;SHT31;58088;51.186;17.130;2022-10-26T04:15:04;8.01;76.81
70534;SHT31;58088;51.186;17.130;2022-10-26T04:17:31;8.02;76.93
70534;SHT31;58088;51.186;17.130;2022-10-26T04:19:58;8.02;77.10
70534;SHT31;58088;51.186;17.130;2022-10-26T04:22:24;7.99;77.17
70534;SHT31;58088;51.186;17.130;2022-10-26T04:24:50;7.96;77.15
70534;SHT31;58088;51.186;17.130;2022-10-26T04:27:16;8.01;77.20
70534;SHT31;58088;51.186;17.130;2022-10-26T04:29:42;8.00;77.27
70534;SHT31;58088;51.186;17.130;2022-10-26T04:32:08;8.00;77.31
70534;SHT31;58088;51.186;17.130;2022-10-26T04:34:34;7.98;77.30
70534;SHT31;58088;51.186;17.130;2022-10-26T04:37:00;7.94;77.30
70534;SHT31;58088;51.186;17.130;2022-10-26T04:39:27;7.88;77.30
70534;SHT31;58088;51.186;17.130;2022-10-26T04:41:53;7.80;77.44
70534;SHT31;58088;51.186;17.130;2022-10-26T04:44:19;7.82;77.50
70534;SHT31;58088;51.186;17.130;2022-10-26T04:46:45;7.85;77.49
70534;SHT31;58088;51.186;17.130;2022-10-26T04:49:11;7.84;77.35
70534;SHT31;58088;51.186;17.130;2022-10-26T04:51:37;7.87;77.23
70534;SHT31;58088;51.186;17.130;2022-10-26T04:54:03;7.85;77.15
70534;SHT31;58088;51.186;17.130;2022-10-26T04:56:29;7.86;77.17
70534;SHT31;58088;51.186;17.130;2022-10-26T04:58:56;7.85;77.04
70534;SHT31;58088;51.186;17.130;2022-10-26T05:01:22;7.79;76.93
70534;SHT31;58088;51.186;17.130;2022-10-26T05:03:51;7.69;76.92
70534;SHT31;58088;51.186;17.130;2022-10-26T05:06:18;7.62;77.00
70534;SHT31;58088;51.186;17.130;2022-10-26T05:08:45;7.57;77.04
70534;SHT31;58088;51.186;17.130;2022-10-26T05:11:12;7.55;77.15
70534;SHT31;58088;51.186;17.130;2022-10-26T05:13:38;7.49;77.26
70534;SHT31;58088;51.186;17.130;2022-10-26T05:16:04;7.46;77.39
70534;SHT31;58088;51.186;17.130;2022-10-26T05:18:31;7.44;77.42
70534;SHT31;58088;51.186;17.130;2022-10-26T05:20:57;7.39;77.30
70534;SHT31;58088;51.186;17.130;2022-10-26T05:23:23;7.33;77.37
70534;SHT31;58088;51.186;17.130;2022-10-26T05:25:50;7.33;77.46
70534;SHT31;58088;51.186;17.130;2022-10-26T05:28:16;7.32;77.51
70534;SHT31;58088;51.186;17.130;2022-10-26T05:30:43;7.32;77.63
70534;SHT31;58088;51.186;17.130;2022-10-26T05:33:11;7.30;77.73
70534;SHT31;58088;51.186;17.130;2022-10-26T05:35:39;7.29;77.85
70534;SHT31;58088;51.186;17.130;2022-10-26T05:38:06;7.24;77.97
70534;SHT31;58088;51.186;17.130;2022-10-26T05:40:47;7.21;78.04
70534;SHT31;58088;51.186;17.130;2022-10-26T05:43:16;7.19;78.25
70534;SHT31;58088;51.186;17.130;2022-10-26T05:45:43;7.21;78.30
70534;SHT31;58088;51.186;17.130;2022-10-26T05:48:10;7.22;78.20
70534;SHT31;58088;51.186;17.130;2022-10-26T05:50:37;7.22;78.23
70534;SHT31;58088;51.186;17.130;2022-10-26T05:53:03;7.21;78.36
70534;SHT31;58088;51.186;17.130;2022-10-26T05:55:29;7.18;78.40
70534;SHT31;58088;51.186;17.130;2022-10-26T05:57:56;7.21;78.47
70534;SHT31;58088;51.186;17.130;2022-10-26T06:00:23;7.25;78.56
70534;SHT31;58088;51.186;17.130;2022-10-26T06:05:51;7.30;78.70
70534;SHT31;58088;51.186;17.130;2022-10-26T06:08:24;7.27;78.75
70534;SHT31;58088;51.186;17.130;2022-10-26T06:10:54;7.26;78.86
70534;SHT31;58088;51.186;17.130;2022-10-26T06:13:24;7.29;78.95
70534;SHT31;58088;51.186;17.130;2022-10-26T06:27:54;7.59;79.35
70534;SHT31;58088;51.186;17.130;2022-10-26T06:30:45;7.66;79.49
70534;SHT31;58088;51.186;17.130;2022-10-26T06:33:12;7.73;79.56
70534;SHT31;58088;51.186;17.130;2022-10-26T06:38:18;7.88;79.60
70534;SHT31;58088;51.186;17.130;2022-10-26T06:40:48;7.96;79.63
70534;SHT31;58088;51.186;17.130;2022-10-26T06:43:24;8.04;79.68
70534;SHT31;58088;51.186;17.130;2022-10-26T06:46:06;8.19;79.76
70534;SHT31;58088;51.186;17.130;2022-10-26T06:51:52;8.56;79.68
70534;SHT31;58088;51.186;17.130;2022-10-26T06:57:19;8.98;79.60
70534;SHT31;58088;51.186;17.130;2022-10-26T06:59:50;9.16;79.50
70534;SHT31;58088;51.186;17.130;2022-10-26T07:02:21;9.35;79.32
70534;SHT31;58088;51.186;17.130;2022-10-26T07:04:48;9.55;79.06
70534;SHT31;58088;51.186;17.130;2022-10-26T07:07:18;9.75;78.74
70534;SHT31;58088;51.186;17.130;2022-10-26T07:09:55;10.02;78.57
70534;SHT31;58088;51.186;17.130;2022-10-26T07:12:22;10.27;78.23
70534;SHT31;58088;51.186;17.130;2022-10-26T07:14:48;10.47;77.92
70534;SHT31;58088;51.186;17.130;2022-10-26T07:17:14;10.71;77.89
70534;SHT31;58088;51.186;17.130;2022-10-26T07:19:41;10.92;77.66
70534;SHT31;58088;51.186;17.130;2022-10-26T07:22:09;11.06;77.47
70534;SHT31;58088;51.186;17.130;2022-10-26T07:24:35;11.22;77.30
70534;SHT31;58088;51.186;17.130;2022-10-26T07:27:01;11.41;77.18
70534;SHT31;58088;51.186;17.130;2022-10-26T07:29:27;11.59;77.12
70534;SHT31;58088;51.186;17.130;2022-10-26T07:31:53;11.77;76.95
70534;SHT31;58088;51.186;17.130;2022-10-26T07:34:20;11.96;76.75
70534;SHT31;58088;51.186;17.130;2022-10-26T07:36:46;12.13;76.64
70534;SHT31;58088;51.186;17.130;2022-10-26T07:39:12;12.31;76.62
70534;SHT31;58088;51.186;17.130;2022-10-26T07:41:38;12.50;76.46
70534;SHT31;58088;51.186;17.130;2022-10-26T07:44:04;12.67;76.25
70534;SHT31;58088;51.186;17.130;2022-10-26T07:46:30;12.84;76.14
70534;SHT31;58088;51.186;17.130;2022-10-26T07:48:57;13.00;75.94
70534;SHT31;58088;51.186;17.130;2022-10-26T07:51:23;13.10;75.70
70534;SHT31;58088;51.186;17.130;2022-10-26T07:53:49;13.27;75.66
70534;SHT31;58088;51.186;17.130;2022-10-26T07:56:15;13.37;75.46
70534;SHT31;58088;51.186;17.130;2022-10-26T07:58:41;13.44;75.17
70534;SHT31;58088;51.186;17.130;2022-10-26T08:01:08;13.46;75.02
70534;SHT31;58088;51.186;17.130;2022-10-26T08:03:38;13.54;75.09
70534;SHT31;58088;51.186;17.130;2022-10-26T08:06:05;13.68;75.11
70534;SHT31;58088;51.186;17.130;2022-10-26T08:08:34;13.88;75.04
70534;SHT31;58088;51.186;17.130;2022-10-26T08:11:00;14.00;74.98
70534;SHT31;58088;51.186;17.130;2022-10-26T08:13:26;14.12;74.65
70534;SHT31;58088;51.186;17.130;2022-10-26T08:15:56;14.18;74.35
70534;SHT31;58088;51.186;17.130;2022-10-26T08:18:24;14.27;74.22
70534;SHT31;58088;51.186;17.130;2022-10-26T08:20:51;14.40;74.14
70534;SHT31;58088;51.186;17.130;2022-10-26T08:23:17;14.47;73.96
70534;SHT31;58088;51.186;17.130;2022-10-26T08:25:43;14.53;73.79
70534;SHT31;58088;51.186;17.130;2022-10-26T08:28:09;14.60;73.76
70534;SHT31;58088;51.186;17.130;2022-10-26T08:30:35;14.66;73.63
70534;SHT31;58088;51.186;17.130;2022-10-26T08:33:03;14.71;73.53
70534;SHT31;58088;51.186;17.130;2022-10-26T08:35:32;14.74;73.32
70534;SHT31;58088;51.186;17.130;2022-10-26T08:37:59;14.81;73.45
70534;SHT31;58088;51.186;17.130;2022-10-26T08:40:32;14.90;73.30
70534;SHT31;58088;51.186;17.130;2022-10-26T08:43:14;14.98;73.29
70534;SHT31;58088;51.186;17.130;2022-10-26T08:48:24;15.09;72.78
70534;SHT31;58088;51.186;17.130;2022-10-26T08:51:00;15.19;72.86
70534;SHT31;58088;51.186;17.130;2022-10-26T08:56:38;15.43;72.28
70534;SHT31;58088;51.186;17.130;2022-10-26T08:59:12;15.53;72.11
70534;SHT31;58088;51.186;17.130;2022-10-26T09:01:54;15.60;72.21
70534;SHT31;58088;51.186;17.130;2022-10-26T09:04:24;15.72;72.06
70534;SHT31;58088;51.186;17.130;2022-10-26T09:09:31;15.87;71.72
70534;SHT31;58088;51.186;17.130;2022-10-26T09:15:37;15.97;71.54
70534;SHT31;58088;51.186;17.130;2022-10-26T09:21:36;16.14;71.23
70534;SHT31;58088;51.186;17.130;2022-10-26T09:24:32;16.23;70.98
70534;SHT31;58088;51.186;17.130;2022-10-26T09:29:53;16.32;70.72
70534;SHT31;58088;51.186;17.130;2022-10-26T09:32:25;16.38;70.42
70534;SHT31;58088;51.186;17.130;2022-10-26T09:35:21;16.46;70.41
70534;SHT31;58088;51.186;17.130;2022-10-26T09:37:57;16.55;70.32
70534;SHT31;58088;51.186;17.130;2022-10-26T09:43:24;16.56;69.85
70534;SHT31;58088;51.186;17.130;2022-10-26T09:45:57;16.56;69.82
70534;SHT31;58088;51.186;17.130;2022-10-26T09:48:38;16.60;69.76
70534;SHT31;58088;51.186;17.130;2022-10-26T09:51:26;16.73;69.78
70534;SHT31;58088;51.186;17.130;2022-10-26T09:53:53;16.85;69.63
70534;SHT31;58088;51.186;17.130;2022-10-26T09:56:22;16.97;69.49
70534;SHT31;58088;51.186;17.130;2022-10-26T09:58:53;17.07;69.25
70534;SHT31;58088;51.186;17.130;2022-10-26T10:01:27;17.14;69.03
70534;SHT31;58088;51.186;17.130;2022-10-26T10:06:45;17.31;68.82
70534;SHT31;58088;51.186;17.130;2022-10-26T10:09:17;17.39;68.70
70534;SHT31;58088;51.186;17.130;2022-10-26T10:14:38;17.48;68.15
70534;SHT31;58088;51.186;17.130;2022-10-26T10:17:20;17.56;67.98
70534;SHT31;58088;51.186;17.130;2022-10-26T10:19:48;17.59;67.77
70534;SHT31;58088;51.186;17.130;2022-10-26T10:24:56;17.67;66.97
70534;SHT31;58088;51.186;17.130;2022-10-26T10:27:25;17.72;66.98
70534;SHT31;58088;51.186;17.130;2022-10-26T10:29:57;17.78;66.95
70534;SHT31;58088;51.186;17.130;2022-10-26T10:32:31;17.91;66.66
70534;SHT31;58088;51.186;17.130;2022-10-26T10:34:58;17.96;66.16
70534;SHT31;58088;51.186;17.130;2022-10-26T10:37:40;18.03;66.16
70534;SHT31;58088;51.186;17.130;2022-10-26T10:40:17;18.09;66.22
70534;SHT31;58088;51.186;17.130;2022-10-26T10:42:47;18.18;66.14
70534;SHT31;58088;51.186;17.130;2022-10-26T10:47:56;18.32;65.54
70534;SHT31;58088;51.186;17.130;2022-10-26T10:50:51;18.41;65.63
70534;SHT31;58088;51.186;17.130;2022-10-26T10:53:25;18.50;65.72
70534;SHT31;58088;51.186;17.130;2022-10-26T10:56:39;18.60;65.69
70534;SHT31;58088;51.186;17.130;2022-10-26T11:02:01;18.76;64.71
70534;SHT31;58088;51.186;17.130;2022-10-26T11:08:22;18.87;64.04
70534;SHT31;58088;51.186;17.130;2022-10-26T11:10:59;18.90;63.87
70534;SHT31;58088;51.186;17.130;2022-10-26T11:13:46;18.92;63.65
70534;SHT31;58088;51.186;17.130;2022-10-26T11:16:30;18.97;63.63
70534;SHT31;58088;51.186;17.130;2022-10-26T11:19:16;19.02;63.53
70534;SHT31;58088;51.186;17.130;2022-10-26T11:22:00;19.11;63.75
70534;SHT31;58088;51.186;17.130;2022-10-26T11:24:32;19.18;63.43
70534;SHT31;58088;51.186;17.130;2022-10-26T11:27:11;19.24;62.78
70534;SHT31;58088;51.186;17.130;2022-10-26T11:35:40;19.35;62.38
70534;SHT31;58088;51.186;17.130;2022-10-26T11:38:28;19.37;61.88
70534;SHT31;58088;51.186;17.130;2022-10-26T11:41:55;19.41;61.66
70534;SHT31;58088;51.186;17.130;2022-10-26T11:44:36;19.48;62.35
70534;SHT31;58088;51.186;17.130;2022-10-26T11:47:21;19.52;62.04
70534;SHT31;58088;51.186;17.130;2022-10-26T11:50:12;19.53;61.85
70534;SHT31;58088;51.186;17.130;2022-10-26T11:52:48;19.55;61.50
70534;SHT31;58088;51.186;17.130;2022-10-26T11:55:42;19.57;61.39
70534;SHT31;58088;51.186;17.130;2022-10-26T11:58:20;19.56;60.87
70534;SHT31;58088;51.186;17.130;2022-10-26T12:00:52;19.59;60.89
70534;SHT31;58088;51.186;17.130;2022-10-26T12:03:26;19.63;61.04
70534;SHT31;58088;51.186;17.130;2022-10-26T12:05:59;19.67;60.84
70534;SHT31;58088;51.186;17.130;2022-10-26T12:11:13;19.71;60.49
70534;SHT31;58088;51.186;17.130;2022-10-26T12:17:14;19.74;59.88
70534;SHT31;58088;51.186;17.130;2022-10-26T12:22:31;19.80;59.66
70534;SHT31;58088;51.186;17.130;2022-10-26T12:40:56;19.81;58.86
70534;SHT31;58088;51.186;17.130;2022-10-26T12:43:47;19.76;58.96
70534;SHT31;58088;51.186;17.130;2022-10-26T12:53:51;19.72;58.51
70534;SHT31;58088;51.186;17.130;2022-10-26T12:59:49;19.73;58.11
70534;SHT31;58088;51.186;17.130;2022-10-26T13:08:01;19.68;57.15
70534;SHT31;58088;51.186;17.130;2022-10-26T13:10:32;19.66;56.66
70534;SHT31;58088;51.186;17.130;2022-10-26T13:13:02;19.67;56.77
70534;SHT31;58088;51.186;17.130;2022-10-26T13:15:38;19.67;56.58
70534;SHT31;58088;51.186;17.130;2022-10-26T13:18:18;19.66;56.37
70534;SHT31;58088;51.186;17.130;2022-10-26T13:21:20;19.62;56.78
70534;SHT31;58088;51.186;17.130;2022-10-26T13:24:02;19.56;57.05
70534;SHT31;58088;51.186;17.130;2022-10-26T13:26:32;19.52;56.51
70534;SHT31;58088;51.186;17.130;2022-10-26T13:29:30;19.52;56.24
70534;SHT31;58088;51.186;17.130;2022-10-26T13:31:58;19.49;56.26
70534;SHT31;58088;51.186;17.130;2022-10-26T13:34:26;19.46;56.49
70534;SHT31;58088;51.186;17.130;2022-10-26T13:36:58;19.42;56.14
70534;SHT31;58088;51.186;17.130;2022-10-26T13:39:42;19.38;56.77
70534;SHT31;58088;51.186;17.130;2022-10-26T13:42:15;19.29;56.92
70534;SHT31;58088;51.186;17.130;2022-10-26T13:47:41;19.17;57.40
70534;SHT31;58088;51.186;17.130;2022-10-26T13:50:18;19.13;57.80
70534;SHT31;58088;51.186;17.130;2022-10-26T13:52:50;19.08;57.84
70534;SHT31;58088;51.186;17.130;2022-10-26T14:01:02;19.06;57.73
70534;SHT31;58088;51.186;17.130;2022-10-26T14:03:36;19.06;57.72
70534;SHT31;58088;51.186;17.130;2022-10-26T14:06:04;19.07;57.70
70534;SHT31;58088;51.186;17.130;2022-10-26T14:08:37;19.07;57.42
70534;SHT31;58088;51.186;17.130;2022-10-26T14:11:09;19.09;57.19
70534;SHT31;58088;51.186;17.130;2022-10-26T14:13:41;19.07;57.35
70534;SHT31;58088;51.186;17.130;2022-10-26T14:16:07;19.07;57.29
70534;SHT31;58088;51.186;17.130;2022-10-26T14:18:35;19.06;57.26
70534;SHT31;58088;51.186;17.130;2022-10-26T14:21:06;19.05;57.32
70534;SHT31;58088;51.186;17.130;2022-10-26T14:23:47;19.02;57.44
70534;SHT31;58088;51.186;17.130;2022-10-26T14:26:30;19.01;57.60
70534;SHT31;58088;51.186;17.130;2022-10-26T14:29:18;19.01;57.52
70534;SHT31;58088;51.186;17.130;2022-10-26T14:31:48;19.00;57.47
70534;SHT31;58088;51.186;17.130;2022-10-26T14:34:16;18.97;57.84
70534;SHT31;58088;51.186;17.130;2022-10-26T14:36:48;18.94;58.32
70534;SHT31;58088;51.186;17.130;2022-10-26T14:42:26;18.86;58.45
70534;SHT31;58088;51.186;17.130;2022-10-26T14:44:58;18.82;58.62
70534;SHT31;58088;51.186;17.130;2022-10-26T14:47:32;18.78;59.10
70534;SHT31;58088;51.186;17.130;2022-10-26T14:50:00;18.74;59.29
70534;SHT31;58088;51.186;17.130;2022-10-26T14:52:29;18.67;59.62
70534;SHT31;58088;51.186;17.130;2022-10-26T14:55:04;18.63;59.59
70534;SHT31;58088;51.186;17.130;2022-10-26T14:57:39;18.56;59.68
70534;SHT31;58088;51.186;17.130;2022-10-26T15:00:22;18.47;60.41
70534;SHT31;58088;51.186;17.130;2022-10-26T15:02:56;18.37;60.77
70534;SHT31;58088;51.186;17.130;2022-10-26T15:07:52;18.21;61.26
70534;SHT31;58088;51.186;17.130;2022-10-26T15:13:09;18.04;61.21
70534;SHT31;58088;51.186;17.130;2022-10-26T15:15:44;17.93;61.34
70534;SHT31;58088;51.186;17.130;2022-10-26T15:18:31;17.83;61.69
70534;SHT31;58088;51.186;17.130;2022-10-26T15:21:01;17.70;62.00
70534;SHT31;58088;51.186;17.130;2022-10-26T15:23:28;17.60;62.30
70534;SHT31;58088;51.186;17.130;2022-10-26T15:25:56;17.50;62.54
70534;SHT31;58088;51.186;17.130;2022-10-26T15:28:29;17.44;62.86
70534;SHT31;58088;51.186;17.130;2022-10-26T15:31:04;17.36;63.17
70534;SHT31;58088;51.186;17.130;2022-10-26T15:33:37;17.25;63.43
70534;SHT31;58088;51.186;17.130;2022-10-26T15:38:36;17.11;64.04
70534;SHT31;58088;51.186;17.130;2022-10-26T15:41:03;17.03;64.39
70534;SHT31;58088;51.186;17.130;2022-10-26T15:43:34;16.95;64.68
70534;SHT31;58088;51.186;17.130;2022-10-26T15:46:00;16.87;64.87
70534;SHT31;58088;51.186;17.130;2022-10-26T15:48:27;16.80;65.08
70534;SHT31;58088;51.186;17.130;2022-10-26T15:50:58;16.70;65.23
70534;SHT31;58088;51.186;17.130;2022-10-26T15:53:25;16.61;65.35
70534;SHT31;58088;51.186;17.130;2022-10-26T15:55:52;16.55;65.67
70534;SHT31;58088;51.186;17.130;2022-10-26T15:58:22;16.53;66.02
70534;SHT31;58088;51.186;17.130;2022-10-26T16:00:48;16.44;66.03
70534;SHT31;58088;51.186;17.130;2022-10-26T16:03:16;16.32;66.15
70534;SHT31;58088;51.186;17.130;2022-10-26T16:05:46;16.21;66.31
70534;SHT31;58088;51.186;17.130;2022-10-26T16:08:18;16.11;66.56
70534;SHT31;58088;51.186;17.130;2022-10-26T16:10:44;16.01;66.79
70534;SHT31;58088;51.186;17.130;2022-10-26T16:13:12;15.92;66.94
70534;SHT31;58088;51.186;17.130;2022-10-26T16:15:39;15.83;67.00
70534;SHT31;58088;51.186;17.130;2022-10-26T16:18:06;15.72;67.20
70534;SHT31;58088;51.186;17.130;2022-10-26T16:20:32;15.62;67.43
70534;SHT31;58088;51.186;17.130;2022-10-26T16:22:59;15.51;67.66
70534;SHT31;58088;51.186;17.130;2022-10-26T16:25:32;15.42;67.94
70534;SHT31;58088;51.186;17.130;2022-10-26T16:28:05;15.31;67.97
70534;SHT31;58088;51.186;17.130;2022-10-26T16:30:31;15.20;67.72
70534;SHT31;58088;51.186;17.130;2022-10-26T16:32:57;15.11;68.09
70534;SHT31;58088;51.186;17.130;2022-10-26T16:35:23;15.02;68.43
70534;SHT31;58088;51.186;17.130;2022-10-26T16:37:50;14.93;68.67
70534;SHT31;58088;51.186;17.130;2022-10-26T16:40:16;14.82;68.84
70534;SHT31;58088;51.186;17.130;2022-10-26T16:42:42;14.71;69.02
70534;SHT31;58088;51.186;17.130;2022-10-26T16:45:10;14.61;69.26
70534;SHT31;58088;51.186;17.130;2022-10-26T16:47:38;14.53;69.41
70534;SHT31;58088;51.186;17.130;2022-10-26T16:50:09;14.45;69.62
70534;SHT31;58088;51.186;17.130;2022-10-26T16:52:37;14.39;69.84
70534;SHT31;58088;51.186;17.130;2022-10-26T16:55:04;14.32;70.00
70534;SHT31;58088;51.186;17.130;2022-10-26T16:57:33;14.28;70.10
70534;SHT31;58088;51.186;17.130;2022-10-26T17:00:01;14.22;70.02
70534;SHT31;58088;51.186;17.130;2022-10-26T17:02:27;14.12;69.67
70534;SHT31;58088;51.186;17.130;2022-10-26T17:04:54;14.06;69.94
70534;SHT31;58088;51.186;17.130;2022-10-26T17:07:20;13.99;70.09
70534;SHT31;58088;51.186;17.130;2022-10-26T17:09:46;13.93;70.49
70534;SHT31;58088;51.186;17.130;2022-10-26T17:12:12;13.86;70.60
70534;SHT31;58088;51.186;17.130;2022-10-26T17:14:38;13.78;70.71
70534;SHT31;58088;51.186;17.130;2022-10-26T17:17:05;13.72;70.91
70534;SHT31;58088;51.186;17.130;2022-10-26T17:19:31;13.64;70.93
70534;SHT31;58088;51.186;17.130;2022-10-26T17:21:57;13.59;71.06
70534;SHT31;58088;51.186;17.130;2022-10-26T17:24:23;13.55;71.30
70534;SHT31;58088;51.186;17.130;2022-10-26T17:26:49;13.49;71.41
70534;SHT31;58088;51.186;17.130;2022-10-26T17:29:16;13.42;71.41
70534;SHT31;58088;51.186;17.130;2022-10-26T17:31:42;13.35;71.47
70534;SHT31;58088;51.186;17.130;2022-10-26T17:34:09;13.28;71.66
70534;SHT31;58088;51.186;17.130;2022-10-26T17:36:35;13.23;71.67
70534;SHT31;58088;51.186;17.130;2022-10-26T17:39:01;13.19;71.68
70534;SHT31;58088;51.186;17.130;2022-10-26T17:41:27;13.15;71.78
70534;SHT31;58088;51.186;17.130;2022-10-26T17:43:53;13.10;71.77
70534;SHT31;58088;51.186;17.130;2022-10-26T17:46:21;13.04;71.64
70534;SHT31;58088;51.186;17.130;2022-10-26T17:48:53;12.98;71.58
70534;SHT31;58088;51.186;17.130;2022-10-26T17:51:24;12.91;71.50
70534;SHT31;58088;51.186;17.130;2022-10-26T17:53:54;12.85;71.51
70534;SHT31;58088;51.186;17.130;2022-10-26T17:56:25;12.80;71.95
70534;SHT31;58088;51.186;17.130;2022-10-26T17:58:58;12.75;72.20
70534;SHT31;58088;51.186;17.130;2022-10-26T18:01:27;12.69;72.22
70534;SHT31;58088;51.186;17.130;2022-10-26T18:03:56;12.64;72.11
70534;SHT31;58088;51.186;17.130;2022-10-26T18:06:23;12.58;72.24
70534;SHT31;58088;51.186;17.130;2022-10-26T18:08:49;12.54;72.28
70534;SHT31;58088;51.186;17.130;2022-10-26T18:11:16;12.51;72.32
70534;SHT31;58088;51.186;17.130;2022-10-26T18:13:47;12.45;72.51
70534;SHT31;58088;51.186;17.130;2022-10-26T18:16:17;12.39;72.48
70534;SHT31;58088;51.186;17.130;2022-10-26T18:18:47;12.31;72.50
70534;SHT31;58088;51.186;17.130;2022-10-26T18:21:15;12.26;72.68